sensor_id;sensor_type;location;lat;lon;timestamp;P1;durP1;ratioP1;P2;durP2;ratioP2
43527;SDS011;52359;42.658;23.320;2022-09-13T00:01:41;3.42;;;3.13;;
43527;SDS011;52359;42.658;23.320;2022-09-13T00:04:07;3.97;;;3.17;;
43527;SDS011;52359;42.658;23.320;2022-09-13T00:06:34;7.10;;;3.42;;
43527;SDS011;52359;42.658;23.320;2022-09-13T00:09:00;3.88;;;3.17;;
43527;SDS011;52359;42.658;23.320;2022-09-13T00:11:26;2.90;;;2.70;;
43527;SDS011;52359;42.658;23.320;2022-09-13T00:13:53;9.02;;;3.25;;
43527;SDS011;52359;42.658;23.320;2022-09-13T00:16:19;3.72;;;3.30;;
43527;SDS011;52359;42.658;23.320;2022-09-13T00:18:46;5.00;;;2.95;;
43527;SDS011;52359;42.658;23.320;2022-09-13T00:21:14;8.23;;;3.70;;
43527;SDS011;52359;42.658;23.320;2022-09-13T00:23:42;4.35;;;3.58;;
43527;SDS011;52359;42.658;23.320;2022-09-13T00:26:14;6.15;;;3.70;;
43527;SDS011;52359;42.658;23.320;2022-09-13T00:28:41;7.63;;;3.70;;
43527;SDS011;52359;42.658;23.320;2022-09-13T00:31:09;4.40;;;3.28;;
43527;SDS011;52359;42.658;23.320;2022-09-13T00:33:35;3.25;;;3.05;;
43527;SDS011;52359;42.658;23.320;2022-09-13T00:36:05;4.55;;;3.00;;
43527;SDS011;52359;42.658;23.320;2022-09-13T00:38:33;4.93;;;3.47;;
43527;SDS011;52359;42.658;23.320;2022-09-13T00:40:59;9.40;;;4.30;;
43527;SDS011;52359;42.658;23.320;2022-09-13T00:46:06;4.90;;;3.50;;
43527;SDS011;52359;42.658;23.320;2022-09-13T00:48:32;6.00;;;3.25;;
43527;SDS011;52359;42.658;23.320;2022-09-13T00:50:59;3.72;;;3.10;;
43527;SDS011;52359;42.658;23.320;2022-09-13T00:53:28;3.58;;;3.00;;
43527;SDS011;52359;42.658;23.320;2022-09-13T00:56:00;3.92;;;3.25;;
43527;SDS011;52359;42.658;23.320;2022-09-13T01:00:53;3.92;;;3.20;;
43527;SDS011;52359;42.658;23.320;2022-09-13T01:03:21;7.47;;;2.90;;
43527;SDS011;52359;42.658;23.320;2022-09-13T01:05:49;4.10;;;2.92;;
43527;SDS011;52359;42.658;23.320;2022-09-13T01:08:16;6.15;;;3.22;;
43527;SDS011;52359;42.658;23.320;2022-09-13T01:10:49;5.80;;;3.42;;
43527;SDS011;52359;42.658;23.320;2022-09-13T01:13:20;3.95;;;3.35;;
43527;SDS011;52359;42.658;23.320;2022-09-13T01:15:46;4.70;;;3.47;;
43527;SDS011;52359;42.658;23.320;2022-09-13T01:18:12;3.03;;;2.80;;
43527;SDS011;52359;42.658;23.320;2022-09-13T01:26:00;5.20;;;3.17;;
43527;SDS011;52359;42.658;23.320;2022-09-13T01:42:08;4.68;;;3.22;;
43527;SDS011;52359;42.658;23.320;2022-09-13T02:02:24;4.65;;;3.03;;
43527;SDS011;52359;42.658;23.320;2022-09-13T02:04:51;3.58;;;3.08;;
43527;SDS011;52359;42.658;23.320;2022-09-13T02:07:20;3.22;;;2.88;;
43527;SDS011;52359;42.658;23.320;2022-09-13T02:09:50;6.20;;;3.72;;
43527;SDS011;52359;42.658;23.320;2022-09-13T02:12:21;3.55;;;3.25;;
43527;SDS011;52359;42.658;23.320;2022-09-13T02:15:22;5.20;;;3.70;;
43527;SDS011;52359;42.658;23.320;2022-09-13T02:17:42;7.03;;;3.35;;
43527;SDS011;52359;42.658;23.320;2022-09-13T02:20:19;7.90;;;3.08;;
43527;SDS011;52359;42.658;23.320;2022-09-13T02:22:48;3.80;;;2.85;;
43527;SDS011;52359;42.658;23.320;2022-09-13T02:25:17;8.57;;;3.33;;
43527;SDS011;52359;42.658;23.320;2022-09-13T02:27:47;6.45;;;3.15;;
43527;SDS011;52359;42.658;23.320;2022-09-13T02:30:15;3.60;;;3.10;;
43527;SDS011;52359;42.658;23.320;2022-09-13T02:37:48;3.95;;;3.58;;
43527;SDS011;52359;42.658;23.320;2022-09-13T02:40:17;5.68;;;3.30;;
43527;SDS011;52359;42.658;23.320;2022-09-13T02:42:54;4.35;;;3.42;;
43527;SDS011;52359;42.658;23.320;2022-09-13T02:45:23;4.43;;;3.40;;
43527;SDS011;52359;42.658;23.320;2022-09-13T02:47:53;4.95;;;3.65;;
43527;SDS011;52359;42.658;23.320;2022-09-13T03:00:42;4.88;;;3.00;;
43527;SDS011;52359;42.658;23.320;2022-09-13T03:03:10;3.78;;;3.03;;
43527;SDS011;52359;42.658;23.320;2022-09-13T03:05:37;3.60;;;3.25;;
43527;SDS011;52359;42.658;23.320;2022-09-13T03:08:03;4.03;;;3.03;;
43527;SDS011;52359;42.658;23.320;2022-09-13T03:10:34;2.90;;;2.47;;
43527;SDS011;52359;42.658;23.320;2022-09-13T03:15:34;3.25;;;2.70;;
43527;SDS011;52359;42.658;23.320;2022-09-13T03:18:20;8.57;;;3.22;;
43527;SDS011;52359;42.658;23.320;2022-09-13T03:20:55;8.75;;;2.88;;
43527;SDS011;52359;42.658;23.320;2022-09-13T03:23:38;6.25;;;2.58;;
43527;SDS011;52359;42.658;23.320;2022-09-13T03:28:59;3.55;;;2.60;;
43527;SDS011;52359;42.658;23.320;2022-09-13T03:31:35;5.93;;;3.05;;
43527;SDS011;52359;42.658;23.320;2022-09-13T03:34:07;4.45;;;2.78;;
43527;SDS011;52359;42.658;23.320;2022-09-13T03:36:36;5.65;;;2.72;;
43527;SDS011;52359;42.658;23.320;2022-09-13T03:39:07;4.82;;;2.97;;
43527;SDS011;52359;42.658;23.320;2022-09-13T03:41:36;6.70;;;3.40;;
43527;SDS011;52359;42.658;23.320;2022-09-13T03:44:05;7.68;;;6.53;;
43527;SDS011;52359;42.658;23.320;2022-09-13T03:46:34;8.38;;;4.95;;
43527;SDS011;52359;42.658;23.320;2022-09-13T03:49:01;4.70;;;3.22;;
43527;SDS011;52359;42.658;23.320;2022-09-13T03:51:29;2.70;;;2.30;;
43527;SDS011;52359;42.658;23.320;2022-09-13T03:53:58;2.95;;;2.45;;
43527;SDS011;52359;42.658;23.320;2022-09-13T03:56:25;6.95;;;3.05;;
43527;SDS011;52359;42.658;23.320;2022-09-13T03:58:51;3.03;;;2.80;;
43527;SDS011;52359;42.658;23.320;2022-09-13T04:01:21;3.25;;;2.65;;
43527;SDS011;52359;42.658;23.320;2022-09-13T04:03:47;3.22;;;2.38;;
43527;SDS011;52359;42.658;23.320;2022-09-13T04:06:14;5.65;;;3.15;;
43527;SDS011;52359;42.658;23.320;2022-09-13T04:08:40;6.53;;;3.03;;
43527;SDS011;52359;42.658;23.320;2022-09-13T04:11:06;7.05;;;4.72;;
43527;SDS011;52359;42.658;23.320;2022-09-13T04:13:33;12.27;;;6.10;;
43527;SDS011;52359;42.658;23.320;2022-09-13T04:16:00;12.90;;;4.13;;
43527;SDS011;52359;42.658;23.320;2022-09-13T04:18:27;4.07;;;3.30;;
43527;SDS011;52359;42.658;23.320;2022-09-13T04:20:54;4.50;;;3.20;;
43527;SDS011;52359;42.658;23.320;2022-09-13T04:23:20;11.10;;;3.10;;
43527;SDS011;52359;42.658;23.320;2022-09-13T04:25:46;3.83;;;3.40;;
43527;SDS011;52359;42.658;23.320;2022-09-13T04:28:12;4.30;;;2.88;;
43527;SDS011;52359;42.658;23.320;2022-09-13T04:30:42;3.70;;;3.38;;
43527;SDS011;52359;42.658;23.320;2022-09-13T04:33:08;5.60;;;3.25;;
43527;SDS011;52359;42.658;23.320;2022-09-13T04:35:34;8.35;;;3.65;;
43527;SDS011;52359;42.658;23.320;2022-09-13T04:38:00;7.15;;;3.00;;
43527;SDS011;52359;42.658;23.320;2022-09-13T04:40:27;4.10;;;3.25;;
43527;SDS011;52359;42.658;23.320;2022-09-13T04:42:53;9.55;;;3.10;;
43527;SDS011;52359;42.658;23.320;2022-09-13T04:45:19;3.03;;;2.80;;
43527;SDS011;52359;42.658;23.320;2022-09-13T04:47:55;7.68;;;3.65;;
43527;SDS011;52359;42.658;23.320;2022-09-13T04:50:21;7.38;;;3.10;;
43527;SDS011;52359;42.658;23.320;2022-09-13T04:52:48;3.33;;;3.03;;
43527;SDS011;52359;42.658;23.320;2022-09-13T04:55:14;8.57;;;2.80;;
43527;SDS011;52359;42.658;23.320;2022-09-13T04:57:40;6.50;;;3.80;;
43527;SDS011;52359;42.658;23.320;2022-09-13T05:00:07;4.40;;;2.95;;
43527;SDS011;52359;42.658;23.320;2022-09-13T05:02:34;4.05;;;3.47;;
43527;SDS011;52359;42.658;23.320;2022-09-13T05:05:00;8.63;;;6.50;;
43527;SDS011;52359;42.658;23.320;2022-09-13T05:07:26;6.90;;;6.00;;
43527;SDS011;52359;42.658;23.320;2022-09-13T05:09:52;5.75;;;4.22;;
43527;SDS011;52359;42.658;23.320;2022-09-13T05:12:18;7.22;;;3.83;;
43527;SDS011;52359;42.658;23.320;2022-09-13T05:14:44;6.38;;;3.20;;
43527;SDS011;52359;42.658;23.320;2022-09-13T05:17:10;8.10;;;3.88;;
43527;SDS011;52359;42.658;23.320;2022-09-13T05:19:36;8.05;;;3.67;;
43527;SDS011;52359;42.658;23.320;2022-09-13T05:22:02;3.28;;;2.90;;
43527;SDS011;52359;42.658;23.320;2022-09-13T05:24:28;4.30;;;2.40;;
43527;SDS011;52359;42.658;23.320;2022-09-13T05:26:54;2.70;;;2.50;;
43527;SDS011;52359;42.658;23.320;2022-09-13T05:29:20;5.70;;;2.30;;
43527;SDS011;52359;42.658;23.320;2022-09-13T05:31:46;5.82;;;2.85;;
43527;SDS011;52359;42.658;23.320;2022-09-13T05:34:14;3.72;;;2.88;;
43527;SDS011;52359;42.658;23.320;2022-09-13T05:36:41;10.40;;;3.10;;
43527;SDS011;52359;42.658;23.320;2022-09-13T05:39:11;10.63;;;3.00;;
43527;SDS011;52359;42.658;23.320;2022-09-13T05:41:37;5.88;;;2.72;;
43527;SDS011;52359;42.658;23.320;2022-09-13T05:44:03;5.43;;;2.90;;
43527;SDS011;52359;42.658;23.320;2022-09-13T05:46:29;3.00;;;2.72;;
43527;SDS011;52359;42.658;23.320;2022-09-13T05:48:59;2.90;;;2.60;;
43527;SDS011;52359;42.658;23.320;2022-09-13T05:51:25;10.00;;;2.47;;
43527;SDS011;52359;42.658;23.320;2022-09-13T05:53:52;6.93;;;2.55;;
43527;SDS011;52359;42.658;23.320;2022-09-13T05:56:22;3.63;;;3.17;;
43527;SDS011;52359;42.658;23.320;2022-09-13T05:58:50;5.40;;;2.95;;
43527;SDS011;52359;42.658;23.320;2022-09-13T06:01:17;4.88;;;2.40;;
43527;SDS011;52359;42.658;23.320;2022-09-13T06:03:46;3.22;;;2.95;;
43527;SDS011;52359;42.658;23.320;2022-09-13T06:06:12;6.40;;;2.58;;
43527;SDS011;52359;42.658;23.320;2022-09-13T06:08:38;3.20;;;2.80;;
43527;SDS011;52359;42.658;23.320;2022-09-13T06:11:05;4.63;;;2.50;;
43527;SDS011;52359;42.658;23.320;2022-09-13T06:13:32;2.90;;;2.70;;
43527;SDS011;52359;42.658;23.320;2022-09-13T06:15:59;4.40;;;2.85;;
43527;SDS011;52359;42.658;23.320;2022-09-13T06:18:25;3.60;;;2.90;;
43527;SDS011;52359;42.658;23.320;2022-09-13T06:20:58;3.30;;;2.80;;
43527;SDS011;52359;42.658;23.320;2022-09-13T06:23:25;3.38;;;3.03;;
43527;SDS011;52359;42.658;23.320;2022-09-13T06:28:30;3.03;;;2.70;;
43527;SDS011;52359;42.658;23.320;2022-09-13T06:31:06;7.88;;;3.00;;
43527;SDS011;52359;42.658;23.320;2022-09-13T06:33:33;2.88;;;2.58;;
43527;SDS011;52359;42.658;23.320;2022-09-13T06:36:00;6.60;;;3.42;;
43527;SDS011;52359;42.658;23.320;2022-09-13T06:38:26;8.45;;;3.60;;
43527;SDS011;52359;42.658;23.320;2022-09-13T06:43:52;5.03;;;3.88;;
43527;SDS011;52359;42.658;23.320;2022-09-13T06:46:18;3.13;;;2.83;;
43527;SDS011;52359;42.658;23.320;2022-09-13T06:48:45;5.38;;;3.03;;
43527;SDS011;52359;42.658;23.320;2022-09-13T06:51:13;4.63;;;2.35;;
43527;SDS011;52359;42.658;23.320;2022-09-13T06:53:39;5.32;;;3.03;;
43527;SDS011;52359;42.658;23.320;2022-09-13T06:56:07;4.00;;;2.95;;
43527;SDS011;52359;42.658;23.320;2022-09-13T06:58:33;5.75;;;2.58;;
43527;SDS011;52359;42.658;23.320;2022-09-13T07:03:42;3.35;;;2.80;;
43527;SDS011;52359;42.658;23.320;2022-09-13T07:06:09;4.45;;;3.28;;
43527;SDS011;52359;42.658;23.320;2022-09-13T07:08:36;4.35;;;2.83;;
43527;SDS011;52359;42.658;23.320;2022-09-13T07:11:02;4.88;;;2.97;;
43527;SDS011;52359;42.658;23.320;2022-09-13T07:13:28;6.05;;;2.72;;
43527;SDS011;52359;42.658;23.320;2022-09-13T07:15:54;4.30;;;3.10;;
43527;SDS011;52359;42.658;23.320;2022-09-13T07:18:20;5.13;;;2.22;;
43527;SDS011;52359;42.658;23.320;2022-09-13T07:20:46;2.35;;;2.05;;
43527;SDS011;52359;42.658;23.320;2022-09-13T07:23:12;2.85;;;2.50;;
43527;SDS011;52359;42.658;23.320;2022-09-13T07:25:38;9.25;;;2.63;;
43527;SDS011;52359;42.658;23.320;2022-09-13T07:28:04;3.38;;;2.40;;
43527;SDS011;52359;42.658;23.320;2022-09-13T07:30:30;2.78;;;2.13;;
43527;SDS011;52359;42.658;23.320;2022-09-13T07:32:58;4.40;;;2.25;;
43527;SDS011;52359;42.658;23.320;2022-09-13T07:35:24;3.33;;;2.10;;
43527;SDS011;52359;42.658;23.320;2022-09-13T07:37:50;2.50;;;2.30;;
43527;SDS011;52359;42.658;23.320;2022-09-13T07:40:16;2.58;;;2.38;;
43527;SDS011;52359;42.658;23.320;2022-09-13T07:42:42;4.68;;;2.40;;
43527;SDS011;52359;42.658;23.320;2022-09-13T07:45:08;3.72;;;2.00;;
43527;SDS011;52359;42.658;23.320;2022-09-13T07:47:36;3.92;;;2.08;;
43527;SDS011;52359;42.658;23.320;2022-09-13T07:50:02;2.88;;;1.58;;
43527;SDS011;52359;42.658;23.320;2022-09-13T07:52:29;2.88;;;2.08;;
43527;SDS011;52359;42.658;23.320;2022-09-13T07:54:55;5.22;;;2.40;;
43527;SDS011;52359;42.658;23.320;2022-09-13T07:57:21;2.00;;;1.80;;
43527;SDS011;52359;42.658;23.320;2022-09-13T07:59:47;2.28;;;1.92;;
43527;SDS011;52359;42.658;23.320;2022-09-13T08:02:13;4.50;;;1.70;;
43527;SDS011;52359;42.658;23.320;2022-09-13T08:04:40;2.00;;;1.90;;
43527;SDS011;52359;42.658;23.320;2022-09-13T08:07:06;7.10;;;2.72;;
43527;SDS011;52359;42.658;23.320;2022-09-13T08:09:32;5.75;;;2.97;;
43527;SDS011;52359;42.658;23.320;2022-09-13T08:11:58;3.83;;;2.70;;
43527;SDS011;52359;42.658;23.320;2022-09-13T08:14:24;2.35;;;2.15;;
43527;SDS011;52359;42.658;23.320;2022-09-13T08:16:53;2.50;;;1.85;;
43527;SDS011;52359;42.658;23.320;2022-09-13T08:19:20;2.05;;;1.73;;
43527;SDS011;52359;42.658;23.320;2022-09-13T08:21:46;8.50;;;1.98;;
43527;SDS011;52359;42.658;23.320;2022-09-13T08:24:16;2.50;;;2.30;;
43527;SDS011;52359;42.658;23.320;2022-09-13T08:26:43;9.00;;;2.13;;
43527;SDS011;52359;42.658;23.320;2022-09-13T08:29:10;2.83;;;2.45;;
43527;SDS011;52359;42.658;23.320;2022-09-13T08:31:37;6.93;;;2.15;;
43527;SDS011;52359;42.658;23.320;2022-09-13T08:34:03;5.40;;;2.08;;
43527;SDS011;52359;42.658;23.320;2022-09-13T08:36:29;2.92;;;2.25;;
43527;SDS011;52359;42.658;23.320;2022-09-13T08:38:57;5.97;;;2.22;;
43527;SDS011;52359;42.658;23.320;2022-09-13T08:41:48;3.08;;;2.75;;
43527;SDS011;52359;42.658;23.320;2022-09-13T08:47:07;3.53;;;1.42;;
43527;SDS011;52359;42.658;23.320;2022-09-13T08:49:40;3.05;;;1.70;;
43527;SDS011;52359;42.658;23.320;2022-09-13T08:54:40;1.67;;;1.58;;
43527;SDS011;52359;42.658;23.320;2022-09-13T08:57:18;1.23;;;1.20;;
43527;SDS011;52359;42.658;23.320;2022-09-13T09:05:18;2.78;;;2.00;;
43527;SDS011;52359;42.658;23.320;2022-09-13T09:07:46;2.75;;;1.80;;
43527;SDS011;52359;42.658;23.320;2022-09-13T09:15:27;3.17;;;1.63;;
43527;SDS011;52359;42.658;23.320;2022-09-13T09:17:57;2.83;;;2.28;;
43527;SDS011;52359;42.658;23.320;2022-09-13T09:20:29;8.50;;;2.17;;
43527;SDS011;52359;42.658;23.320;2022-09-13T09:22:57;6.22;;;1.50;;
43527;SDS011;52359;42.658;23.320;2022-09-13T09:25:25;4.13;;;2.88;;
43527;SDS011;52359;42.658;23.320;2022-09-13T09:27:51;4.43;;;2.03;;
43527;SDS011;52359;42.658;23.320;2022-09-13T09:30:18;3.00;;;1.75;;
43527;SDS011;52359;42.658;23.320;2022-09-13T09:32:56;5.95;;;1.63;;
43527;SDS011;52359;42.658;23.320;2022-09-13T09:40:37;3.35;;;1.60;;
43527;SDS011;52359;42.658;23.320;2022-09-13T09:43:21;5.82;;;1.65;;
43527;SDS011;52359;42.658;23.320;2022-09-13T09:45:50;2.47;;;1.27;;
43527;SDS011;52359;42.658;23.320;2022-09-13T09:48:19;4.50;;;1.48;;
43527;SDS011;52359;42.658;23.320;2022-09-13T09:50:49;2.42;;;1.60;;
43527;SDS011;52359;42.658;23.320;2022-09-13T09:53:16;3.50;;;1.08;;
43527;SDS011;52359;42.658;23.320;2022-09-13T09:58:13;2.45;;;1.80;;
43527;SDS011;52359;42.658;23.320;2022-09-13T10:00:50;4.53;;;1.42;;
43527;SDS011;52359;42.658;23.320;2022-09-13T10:03:17;9.32;;;1.58;;
43527;SDS011;52359;42.658;23.320;2022-09-13T10:05:44;11.68;;;1.90;;
43527;SDS011;52359;42.658;23.320;2022-09-13T10:08:32;4.55;;;1.30;;
43527;SDS011;52359;42.658;23.320;2022-09-13T10:10:57;2.67;;;1.20;;
43527;SDS011;52359;42.658;23.320;2022-09-13T10:13:26;3.83;;;1.40;;
43527;SDS011;52359;42.658;23.320;2022-09-13T10:15:54;6.00;;;1.90;;
43527;SDS011;52359;42.658;23.320;2022-09-13T10:18:22;4.95;;;1.70;;
43527;SDS011;52359;42.658;23.320;2022-09-13T10:23:25;2.10;;;1.23;;
43527;SDS011;52359;42.658;23.320;2022-09-13T10:26:25;2.22;;;1.00;;
43527;SDS011;52359;42.658;23.320;2022-09-13T10:31:11;1.95;;;1.33;;
43527;SDS011;52359;42.658;23.320;2022-09-13T10:33:43;11.50;;;1.38;;
43527;SDS011;52359;42.658;23.320;2022-09-13T10:36:15;6.57;;;1.30;;
43527;SDS011;52359;42.658;23.320;2022-09-13T10:38:56;3.75;;;1.55;;
43527;SDS011;52359;42.658;23.320;2022-09-13T10:41:24;1.75;;;1.30;;
43527;SDS011;52359;42.658;23.320;2022-09-13T10:44:00;3.38;;;3.08;;
43527;SDS011;52359;42.658;23.320;2022-09-13T10:46:28;3.95;;;1.40;;
43527;SDS011;52359;42.658;23.320;2022-09-13T10:48:55;5.03;;;1.20;;
43527;SDS011;52359;42.658;23.320;2022-09-13T10:53:50;3.90;;;1.23;;
43527;SDS011;52359;42.658;23.320;2022-09-13T10:56:41;2.55;;;1.30;;
43527;SDS011;52359;42.658;23.320;2022-09-13T10:59:21;2.55;;;1.30;;
43527;SDS011;52359;42.658;23.320;2022-09-13T11:08:38;1.52;;;1.40;;
43527;SDS011;52359;42.658;23.320;2022-09-13T11:10:45;1.60;;;1.15;;
43527;SDS011;52359;42.658;23.320;2022-09-13T11:18:34;3.00;;;1.60;;
43527;SDS011;52359;42.658;23.320;2022-09-13T11:21:08;1.95;;;1.67;;
43527;SDS011;52359;42.658;23.320;2022-09-13T11:32:17;1.23;;;1.20;;
43527;SDS011;52359;42.658;23.320;2022-09-13T11:57:18;3.50;;;1.70;;
43527;SDS011;52359;42.658;23.320;2022-09-13T11:59:56;6.43;;;2.17;;
43527;SDS011;52359;42.658;23.320;2022-09-13T12:05:02;2.50;;;2.05;;
43527;SDS011;52359;42.658;23.320;2022-09-13T12:07:46;3.85;;;2.30;;
43527;SDS011;52359;42.658;23.320;2022-09-13T12:10:19;2.28;;;2.15;;
43527;SDS011;52359;42.658;23.320;2022-09-13T12:12:47;2.70;;;2.60;;
43527;SDS011;52359;42.658;23.320;2022-09-13T12:17:53;1.77;;;1.67;;
43527;SDS011;52359;42.658;23.320;2022-09-13T12:20:29;1.65;;;1.55;;
43527;SDS011;52359;42.658;23.320;2022-09-13T12:22:58;1.60;;;1.50;;
43527;SDS011;52359;42.658;23.320;2022-09-13T12:25:27;1.48;;;1.48;;
43527;SDS011;52359;42.658;23.320;2022-09-13T12:28:05;3.00;;;1.40;;
43527;SDS011;52359;42.658;23.320;2022-09-13T12:30:56;2.60;;;1.50;;
43527;SDS011;52359;42.658;23.320;2022-09-13T12:33:19;4.32;;;2.00;;
43527;SDS011;52359;42.658;23.320;2022-09-13T12:35:59;2.10;;;2.00;;
43527;SDS011;52359;42.658;23.320;2022-09-13T12:46:07;4.60;;;4.20;;
43527;SDS011;52359;42.658;23.320;2022-09-13T12:59:08;3.55;;;3.25;;
43527;SDS011;52359;42.658;23.320;2022-09-13T13:01:39;2.93;;;2.83;;
43527;SDS011;52359;42.658;23.320;2022-09-13T13:04:12;31.42;;;6.97;;
43527;SDS011;52359;42.658;23.320;2022-09-13T13:06:40;2.85;;;2.70;;
43527;SDS011;52359;42.658;23.320;2022-09-13T13:11:46;2.53;;;2.33;;
43527;SDS011;52359;42.658;23.320;2022-09-13T13:19:41;3.58;;;1.73;;
43527;SDS011;52359;42.658;23.320;2022-09-13T13:24:53;3.53;;;1.95;;
43527;SDS011;52359;42.658;23.320;2022-09-13T13:27:33;3.72;;;1.08;;
43527;SDS011;52359;42.658;23.320;2022-09-13T13:35:29;1.38;;;0.88;;
43527;SDS011;52359;42.658;23.320;2022-09-13T13:38:12;1.00;;;1.00;;
43527;SDS011;52359;42.658;23.320;2022-09-13T13:40:38;1.17;;;1.02;;
43527;SDS011;52359;42.658;23.320;2022-09-13T13:48:38;2.75;;;1.70;;
43527;SDS011;52359;42.658;23.320;2022-09-13T13:51:12;7.18;;;1.60;;
43527;SDS011;52359;42.658;23.320;2022-09-13T13:53:41;1.63;;;1.52;;
43527;SDS011;52359;42.658;23.320;2022-09-13T13:59:18;1.60;;;1.50;;
43527;SDS011;52359;42.658;23.320;2022-09-13T14:01:56;1.63;;;1.27;;
43527;SDS011;52359;42.658;23.320;2022-09-13T14:10:03;4.07;;;1.60;;
43527;SDS011;52359;42.658;23.320;2022-09-13T14:12:44;3.42;;;1.60;;
43527;SDS011;52359;42.658;23.320;2022-09-13T14:20:58;1.95;;;1.85;;
43527;SDS011;52359;42.658;23.320;2022-09-13T14:23:25;4.18;;;1.30;;
43527;SDS011;52359;42.658;23.320;2022-09-13T14:25:55;2.83;;;1.50;;
43527;SDS011;52359;42.658;23.320;2022-09-13T14:28:22;2.33;;;1.38;;
43527;SDS011;52359;42.658;23.320;2022-09-13T14:30:57;2.08;;;1.92;;
43527;SDS011;52359;42.658;23.320;2022-09-13T14:33:33;1.63;;;1.55;;
43527;SDS011;52359;42.658;23.320;2022-09-13T14:36:05;1.88;;;1.77;;
43527;SDS011;52359;42.658;23.320;2022-09-13T14:38:35;9.75;;;1.75;;
43527;SDS011;52359;42.658;23.320;2022-09-13T14:41:11;2.85;;;1.55;;
43527;SDS011;52359;42.658;23.320;2022-09-13T14:43:40;8.73;;;2.38;;
43527;SDS011;52359;42.658;23.320;2022-09-13T14:48:44;1.95;;;1.60;;
43527;SDS011;52359;42.658;23.320;2022-09-13T14:51:21;3.03;;;1.85;;
43527;SDS011;52359;42.658;23.320;2022-09-13T14:53:51;1.88;;;1.77;;
43527;SDS011;52359;42.658;23.320;2022-09-13T14:58:57;1.40;;;1.30;;
43527;SDS011;52359;42.658;23.320;2022-09-13T15:01:26;4.55;;;1.98;;
43527;SDS011;52359;42.658;23.320;2022-09-13T15:03:55;1.77;;;1.67;;
43527;SDS011;52359;42.658;23.320;2022-09-13T15:06:24;3.50;;;1.20;;
43527;SDS011;52359;42.658;23.320;2022-09-13T15:08:54;1.83;;;1.50;;
43527;SDS011;52359;42.658;23.320;2022-09-13T15:11:53;1.92;;;1.42;;
43527;SDS011;52359;42.658;23.320;2022-09-13T15:14:22;3.72;;;1.40;;
43527;SDS011;52359;42.658;23.320;2022-09-13T15:19:47;1.77;;;1.60;;
43527;SDS011;52359;42.658;23.320;2022-09-13T15:22:22;1.20;;;1.20;;
43527;SDS011;52359;42.658;23.320;2022-09-13T15:24:50;1.60;;;1.50;;
43527;SDS011;52359;42.658;23.320;2022-09-13T15:33:05;1.77;;;1.67;;
43527;SDS011;52359;42.658;23.320;2022-09-13T15:35:35;4.00;;;2.47;;
43527;SDS011;52359;42.658;23.320;2022-09-13T15:43:38;4.55;;;1.60;;
43527;SDS011;52359;42.658;23.320;2022-09-13T15:46:04;4.70;;;1.90;;
43527;SDS011;52359;42.658;23.320;2022-09-13T15:48:31;2.83;;;1.83;;
43527;SDS011;52359;42.658;23.320;2022-09-13T15:51:10;3.70;;;1.98;;
43527;SDS011;52359;42.658;23.320;2022-09-13T15:53:38;4.00;;;1.65;;
43527;SDS011;52359;42.658;23.320;2022-09-13T15:56:05;3.20;;;1.92;;
43527;SDS011;52359;42.658;23.320;2022-09-13T15:58:32;1.98;;;1.70;;
43527;SDS011;52359;42.658;23.320;2022-09-13T16:00:59;1.77;;;1.67;;
43527;SDS011;52359;42.658;23.320;2022-09-13T16:03:25;2.42;;;1.80;;
43527;SDS011;52359;42.658;23.320;2022-09-13T16:05:51;2.42;;;1.98;;
43527;SDS011;52359;42.658;23.320;2022-09-13T16:08:17;5.28;;;2.15;;
43527;SDS011;52359;42.658;23.320;2022-09-13T16:10:44;2.38;;;2.17;;
43527;SDS011;52359;42.658;23.320;2022-09-13T16:13:10;2.90;;;1.90;;
43527;SDS011;52359;42.658;23.320;2022-09-13T16:15:36;5.22;;;2.08;;
43527;SDS011;52359;42.658;23.320;2022-09-13T16:18:02;2.65;;;2.03;;
43527;SDS011;52359;42.658;23.320;2022-09-13T16:20:28;3.88;;;2.53;;
43527;SDS011;52359;42.658;23.320;2022-09-13T16:22:54;2.50;;;2.25;;
43527;SDS011;52359;42.658;23.320;2022-09-13T16:25:19;3.92;;;2.47;;
43527;SDS011;52359;42.658;23.320;2022-09-13T16:27:47;2.08;;;1.98;;
43527;SDS011;52359;42.658;23.320;2022-09-13T16:30:16;5.65;;;2.15;;
43527;SDS011;52359;42.658;23.320;2022-09-13T16:32:43;3.60;;;1.80;;
43527;SDS011;52359;42.658;23.320;2022-09-13T16:35:09;2.45;;;2.00;;
43527;SDS011;52359;42.658;23.320;2022-09-13T16:37:35;5.70;;;2.13;;
43527;SDS011;52359;42.658;23.320;2022-09-13T16:40:02;2.60;;;2.40;;
43527;SDS011;52359;42.658;23.320;2022-09-13T16:42:28;7.60;;;2.85;;
43527;SDS011;52359;42.658;23.320;2022-09-13T16:44:54;3.00;;;2.40;;
43527;SDS011;52359;42.658;23.320;2022-09-13T16:47:20;7.45;;;3.10;;
43527;SDS011;52359;42.658;23.320;2022-09-13T16:49:46;2.85;;;2.65;;
43527;SDS011;52359;42.658;23.320;2022-09-13T16:52:11;2.60;;;2.40;;
43527;SDS011;52359;42.658;23.320;2022-09-13T16:54:37;2.92;;;2.40;;
43527;SDS011;52359;42.658;23.320;2022-09-13T16:57:04;6.10;;;2.50;;
43527;SDS011;52359;42.658;23.320;2022-09-13T16:59:30;3.85;;;2.70;;
43527;SDS011;52359;42.658;23.320;2022-09-13T17:01:57;4.78;;;2.83;;
43527;SDS011;52359;42.658;23.320;2022-09-13T17:04:23;5.53;;;3.17;;
43527;SDS011;52359;42.658;23.320;2022-09-13T17:06:49;4.20;;;3.28;;
43527;SDS011;52359;42.658;23.320;2022-09-13T17:09:15;3.78;;;3.45;;
43527;SDS011;52359;42.658;23.320;2022-09-13T17:11:42;5.57;;;4.72;;
43527;SDS011;52359;42.658;23.320;2022-09-13T17:14:09;6.30;;;4.10;;
43527;SDS011;52359;42.658;23.320;2022-09-13T17:17:02;6.80;;;4.03;;
43527;SDS011;52359;42.658;23.320;2022-09-13T17:19:30;5.47;;;4.35;;
43527;SDS011;52359;42.658;23.320;2022-09-13T17:22:00;6.68;;;4.25;;
43527;SDS011;52359;42.658;23.320;2022-09-13T17:24:27;5.35;;;3.20;;
43527;SDS011;52359;42.658;23.320;2022-09-13T17:26:54;6.72;;;3.40;;
43527;SDS011;52359;42.658;23.320;2022-09-13T17:29:21;9.85;;;4.38;;
43527;SDS011;52359;42.658;23.320;2022-09-13T17:31:49;4.85;;;4.35;;
43527;SDS011;52359;42.658;23.320;2022-09-13T17:34:15;5.82;;;3.90;;
43527;SDS011;52359;42.658;23.320;2022-09-13T17:36:41;9.15;;;3.95;;
43527;SDS011;52359;42.658;23.320;2022-09-13T17:39:08;7.10;;;4.57;;
43527;SDS011;52359;42.658;23.320;2022-09-13T17:41:34;5.63;;;5.03;;
43527;SDS011;52359;42.658;23.320;2022-09-13T17:44:00;6.72;;;4.65;;
43527;SDS011;52359;42.658;23.320;2022-09-13T17:46:27;8.00;;;4.18;;
43527;SDS011;52359;42.658;23.320;2022-09-13T17:48:54;5.70;;;3.80;;
43527;SDS011;52359;42.658;23.320;2022-09-13T17:51:22;4.40;;;3.50;;
43527;SDS011;52359;42.658;23.320;2022-09-13T17:53:50;6.53;;;3.17;;
43527;SDS011;52359;42.658;23.320;2022-09-13T17:56:20;4.63;;;3.22;;
43527;SDS011;52359;42.658;23.320;2022-09-13T17:58:46;3.38;;;3.00;;
43527;SDS011;52359;42.658;23.320;2022-09-13T18:01:13;6.45;;;3.80;;
43527;SDS011;52359;42.658;23.320;2022-09-13T18:03:39;4.32;;;3.35;;
43527;SDS011;52359;42.658;23.320;2022-09-13T18:06:05;5.88;;;2.97;;
43527;SDS011;52359;42.658;23.320;2022-09-13T18:08:33;6.10;;;3.33;;
43527;SDS011;52359;42.658;23.320;2022-09-13T18:11:03;7.47;;;4.60;;
43527;SDS011;52359;42.658;23.320;2022-09-13T18:13:30;7.97;;;3.75;;
43527;SDS011;52359;42.658;23.320;2022-09-13T18:16:00;5.85;;;3.33;;
43527;SDS011;52359;42.658;23.320;2022-09-13T18:18:26;5.55;;;4.18;;
43527;SDS011;52359;42.658;23.320;2022-09-13T18:20:53;5.28;;;4.13;;
43527;SDS011;52359;42.658;23.320;2022-09-13T18:23:19;8.73;;;5.00;;
43527;SDS011;52359;42.658;23.320;2022-09-13T18:25:54;3.75;;;3.30;;
43527;SDS011;52359;42.658;23.320;2022-09-13T18:28:20;7.43;;;5.40;;